Danmarkshavn

KL  EN  DA
ASIAQ
Weather Now GREENLAND SURVEY
Updated [WGT/WGST] Temperature [°C] Wind [m/s] Air pressure [hPa] Relative humidity [%] Precipitation [mm]
Present Wind chill Speed Max
18.04 00:00-13,9-21,74,3 ⇒6,1101070n/a
17.04 23:00-14,3-22,44,6 ⇒9,0101077n/a
17.04 22:00-12,3-21,76,9 ⇒9,4101082n/a
17.04 21:00-11,0-20,98,6 ⇒12,1101077n/a
17.04 20:00-11,5-22,911,4 ⇒14,21010830,3
17.04 19:00-12,0-22,69,4 ⇒13,71009841,8
17.04 18:00-11,7-21,98,7 ⇘13,81009831,9
17.04 17:00-12,4-23,810,8 ⇒18,51009830,9
17.04 16:00-12,9-26,014,9 ⇘24,91009801,6
17.04 15:00-13,0-26,917,1 ⇘27,31007781,7
17.04 14:00-12,9-28,021,8 ⇓29,41007791,7
17.04 13:00-13,4-29,223,9 ⇓30,31008791,5
17.04 12:00-13,9-29,221,0 ⇓27,71012771,2
17.04 11:00-14,3-29,821,1 ⇓26,91013792,3
17.04 10:00-14,7-29,718,7 ⇓25,71015793,0
17.04 09:00-15,1-30,118,0 ⇓24,51017781,7
17.04 08:00-14,7-30,019,8 ⇓23,81019720,8
17.04 07:00-14,4-29,519,4 ⇓23,11020761,8
17.04 06:00-14,7-29,517,9 ⇓23,31021752,8
17.04 05:00-15,0-30,419,5 ⇓23,81022741,1
17.04 04:00-15,8-31,017,9 ⇓22,31023590,4
17.04 03:00-15,8-30,516,4 ⇓20,31024590,7
17.04 02:00-16,6-32,017,5 ⇓20,71025761,6
17.04 01:00-16,7-31,114,6 ⇓20,21027770,4
17.04 00:00-16,5-31,716,9 ⇓19,61027670,1
Position: (76.76944444444,-18.66805555)

[Back]